Time;durP1;ratioP1;P1;durP2;ratioP2;P2;SDS_P1;SDS_P2;PMS_P1;PMS_P2;Temp;Humidity;BMP_temperature;BMP_pressure;BME280_temperature;BME280_humidity;BME280_pressure;Samples;Min_cycle;Max_cycle;Signal;HPM_P1;HPM_P2
2022/04/10 00:01:25;;;;;;;7.93;4.90;;;;;;;9.13;66.63;98484.66;5031395;28;20133;-61
2022/04/10 00:03:51;;;;;;;10.07;6.03;;;;;;;9.10;66.38;98463.59;5029365;28;20108;-61
2022/04/10 00:06:16;;;;;;;9.55;5.13;;;;;;;9.12;65.93;98450.94;5030961;28;20041;-61
2022/04/10 00:08:42;;;;;;;7.00;4.30;;;;;;;9.11;66.35;98457.28;5029865;28;20026;-60
2022/04/10 00:11:07;;;;;;;7.22;4.90;;;;;;;9.12;66.46;98451.78;5030731;28;20046;-61
2022/04/10 00:13:33;;;;;;;10.32;5.03;;;;;;;9.09;66.05;98454.75;5030228;28;20087;-61
2022/04/10 00:15:58;;;;;;;6.68;4.70;;;;;;;9.04;66.57;98454.34;5030518;28;20037;-60
2022/04/10 00:18:24;;;;;;;7.65;5.20;;;;;;;9.13;66.33;98452.63;5030404;28;20026;-62
2022/04/10 00:20:49;;;;;;;9.88;4.90;;;;;;;9.16;65.83;98457.66;5030774;28;20461;-61
2022/04/10 00:23:15;;;;;;;8.35;4.82;;;;;;;9.10;66.04;98458.25;5029200;28;20025;-61
2022/04/10 00:25:40;;;;;;;5.88;4.00;;;;;;;9.09;66.23;98430.72;5030435;28;20033;-61
2022/04/10 00:28:07;;;;;;;7.95;4.75;;;;;;;9.11;66.61;98434.09;5030782;28;20029;-61
2022/04/10 00:30:33;;;;;;;9.15;4.93;;;;;;;8.81;66.60;98385.38;5030285;28;20087;-60
2022/04/10 00:32:59;;;;;;;11.68;4.63;;;;;;;9.04;66.53;98416.97;5030288;28;20034;-63
2022/04/10 00:35:24;;;;;;;9.57;4.93;;;;;;;9.09;66.51;98424.53;5029702;28;20130;-61
2022/04/10 00:37:50;;;;;;;6.00;4.95;;;;;;;9.04;66.96;98409.81;5030032;28;20534;-60
2022/04/10 00:40:15;;;;;;;10.23;5.60;;;;;;;9.08;67.19;98422.84;5030379;28;20040;-61
2022/04/10 00:42:51;;;;;;;8.40;5.03;;;;;;;9.10;67.28;98431.56;5030260;28;20030;-61
2022/04/10 00:45:18;;;;;;;7.63;4.53;;;;;;;9.09;67.05;98424.53;5028078;28;20036;-60
2022/04/10 00:47:45;;;;;;;6.47;4.63;;;;;;;9.08;67.23;98422.84;5030621;28;20040;-62
2022/04/10 00:50:12;;;;;;;9.85;5.07;;;;;;;9.05;67.58;98416.84;5030486;28;20077;-62
2022/04/10 00:52:40;;;;;;;5.38;4.47;;;;;;;9.07;67.33;98415.84;5028878;28;20030;-61
2022/04/10 00:55:07;;;;;;;7.32;4.72;;;;;;;9.09;67.91;98424.53;5028517;28;20366;-62
2022/04/10 00:57:33;;;;;;;9.23;4.82;;;;;;;9.05;68.00;98416.00;5030858;28;20188;-59
2022/04/10 00:59:59;;;;;;;9.07;5.22;;;;;;;9.04;67.84;98412.47;5030385;28;20521;-61
2022/04/10 01:02:24;;;;;;;8.30;4.20;;;;;;;9.04;68.03;98428.50;5030153;28;20029;-61
2022/04/10 01:04:50;;;;;;;7.53;4.78;;;;;;;9.00;68.05;98416.44;5030602;28;20029;-61
2022/04/10 01:07:17;;;;;;;8.90;5.00;;;;;;;8.78;68.31;98385.63;5030642;28;20075;-59
2022/04/10 01:09:43;;;;;;;8.35;4.78;;;;;;;8.98;68.19;98412.22;5028671;28;20091;-61
2022/04/10 01:12:10;;;;;;;7.82;4.65;;;;;;;8.69;68.34;98363.38;5031660;28;20123;-61
2022/04/10 01:14:39;;;;;;;9.35;5.10;;;;;;;9.00;68.19;98407.56;5033184;28;20029;-61
2022/04/10 01:17:09;;;;;;;7.65;4.75;;;;;;;9.05;68.42;98413.34;5034161;28;20095;-61
2022/04/10 01:19:37;;;;;;;9.15;5.28;;;;;;;9.05;68.26;98411.50;5033904;28;20037;-60
2022/04/10 01:22:07;;;;;;;8.60;5.05;;;;;;;8.97;68.74;98421.22;5032581;28;20493;-60
2022/04/10 01:24:37;;;;;;;7.82;5.45;;;;;;;8.91;69.74;98403.97;5033130;28;20025;-61
2022/04/10 01:27:03;;;;;;;9.93;5.35;;;;;;;8.84;69.59;98400.22;5033826;28;20087;-62
2022/04/10 01:29:29;;;;;;;10.05;4.68;;;;;;;8.92;69.56;98404.81;5033642;28;20029;-60
2022/04/10 01:31:55;;;;;;;8.10;5.00;;;;;;;8.97;68.87;98413.22;5033505;28;20096;-60
2022/04/10 01:34:21;;;;;;;9.80;5.30;;;;;;;8.86;69.92;98393.75;5033894;28;20037;-61
2022/04/10 01:36:46;;;;;;;8.10;5.30;;;;;;;8.82;70.26;98399.53;5032439;28;20033;-60
2022/04/10 01:39:15;;;;;;;7.15;5.13;;;;;;;8.88;70.11;98398.94;5031963;28;20044;-59
2022/04/10 01:41:41;;;;;;;7.10;5.00;;;;;;;8.86;70.32;98398.25;5033189;28;20450;-60
2022/04/10 01:44:08;;;;;;;9.77;6.03;;;;;;;8.85;70.56;98401.91;5033719;28;20038;-61
2022/04/10 01:46:34;;;;;;;7.30;5.10;;;;;;;8.85;70.35;98401.91;5033926;28;20482;-61
2022/04/10 01:49:00;;;;;;;10.25;5.13;;;;;;;8.86;70.21;98398.25;5033602;28;20033;-61
2022/04/10 01:51:27;;;;;;;8.32;5.65;;;;;;;8.79;70.66;98386.50;5033156;28;20060;-60
2022/04/10 01:53:53;;;;;;;8.88;5.45;;;;;;;8.81;70.87;98389.84;5033738;28;20029;-61
2022/04/10 01:56:19;;;;;;;7.70;5.85;;;;;;;8.82;70.76;98394.19;5033579;28;20033;-61
2022/04/10 01:58:46;;;;;;;7.78;5.82;;;;;;;8.72;71.25;98368.41;5033003;28;20030;-61
2022/04/10 02:01:14;;;;;;;7.05;5.45;;;;;;;8.82;71.04;98384.38;5032849;28;20029;-63
2022/04/10 02:03:41;;;;;;;9.20;5.78;;;;;;;8.83;70.96;98379.84;5032206;28;20044;-63
2022/04/10 02:06:08;;;;;;;9.07;5.80;;;;;;;8.84;70.90;98384.22;5033111;28;20350;-64
2022/04/10 02:08:35;;;;;;;9.82;6.15;;;;;;;8.82;71.21;98372.84;5032445;28;20389;-61
2022/04/10 02:11:02;;;;;;;10.60;5.78;;;;;;;8.82;71.31;98372.84;5033018;28;20362;-62
2022/04/10 02:13:28;;;;;;;7.93;6.05;;;;;;;8.80;71.17;98366.81;5032623;28;20473;-65
2022/04/10 02:15:54;;;;;;;10.45;6.70;;;;;;;8.80;71.22;98367.66;5032786;28;20072;-63
2022/04/10 02:18:19;;;;;;;8.75;6.45;;;;;;;8.84;71.01;98365.53;5032475;28;20117;-63
2022/04/10 02:20:45;;;;;;;9.05;6.20;;;;;;;8.83;70.68;98364.69;5032568;28;20029;-62
2022/04/10 02:23:11;;;;;;;7.25;5.78;;;;;;;8.65;71.21;98332.63;5031710;28;20029;-64
2022/04/10 02:25:36;;;;;;;9.25;5.93;;;;;;;8.83;71.32;98369.19;5032625;28;20128;-62
2022/04/10 02:28:01;;;;;;;8.05;6.10;;;;;;;8.86;71.45;98360.88;5032649;28;20021;-62
2022/04/10 02:30:27;;;;;;;7.40;6.07;;;;;;;8.74;71.56;98349.56;5032605;28;20045;-62
2022/04/10 02:32:52;;;;;;;7.32;6.10;;;;;;;8.92;71.28;98362.13;5032064;28;20029;-63
2022/04/10 02:35:18;;;;;;;8.20;6.70;;;;;;;8.85;71.27;98344.03;5032251;28;20033;-62
2022/04/10 02:37:47;;;;;;;9.80;6.15;;;;;;;8.98;70.58;98357.03;5032629;28;20492;-63
2022/04/10 02:40:18;;;;;;;7.68;5.80;;;;;;;8.97;71.09;98358.03;5031000;28;20163;-62
2022/04/10 02:42:44;;;;;;;8.65;6.57;;;;;;;8.94;71.62;98357.47;5032233;28;20052;-61
2022/04/10 02:45:10;;;;;;;9.50;6.57;;;;;;;8.96;71.08;98359.00;5032337;28;20036;-62
2022/04/10 02:47:36;;;;;;;8.98;6.70;;;;;;;8.97;71.44;98366.03;5031901;28;20021;-65
2022/04/10 02:50:02;;;;;;;11.13;6.80;;;;;;;8.92;71.28;98352.25;5031209;28;20052;-63
2022/04/10 02:52:28;;;;;;;8.07;6.32;;;;;;;8.99;71.46;98365.84;5032598;28;20489;-62
2022/04/10 02:54:53;;;;;;;10.02;6.68;;;;;;;8.75;71.55;98327.22;5031970;28;20036;-63
2022/04/10 02:57:38;;;;;;;8.45;6.80;;;;;;;9.03;71.52;98375.25;5032075;28;20056;-63
2022/04/10 03:00:22;;;;;;;8.95;6.68;;;;;;;9.13;70.90;98373.38;5032547;28;20036;-63
2022/04/10 03:03:06;;;;;;;11.40;7.03;;;;;;;9.07;71.21;98373.13;5032743;28;20040;-62
2022/04/10 03:05:50;;;;;;;7.93;6.63;;;;;;;9.10;71.13;98375.50;5030747;28;20099;-63
2022/04/10 03:08:34;;;;;;;10.68;6.88;;;;;;;9.11;71.17;98369.16;5032702;28;20044;-62
2022/04/10 03:11:23;;;;;;;9.50;7.57;;;;;;;9.12;71.41;98381.53;5032375;28;20111;-64
2022/04/10 03:14:07;;;;;;;9.30;7.00;;;;;;;9.17;70.95;98385.44;5031749;28;20041;-63
2022/04/10 03:16:51;;;;;;;9.20;7.65;;;;;;;9.16;70.91;98377.56;5031569;28;20390;-62
2022/04/10 03:19:35;;;;;;;8.52;7.00;;;;;;;9.14;71.42;98375.03;5032333;28;20048;-62
2022/04/10 03:22:19;;;;;;;9.18;7.30;;;;;;;9.16;71.80;98370.41;5030898;28;20082;-63
2022/04/10 03:25:04;;;;;;;8.45;7.05;;;;;;;9.18;71.74;98376.41;5031445;28;20056;-62
2022/04/10 03:27:48;;;;;;;11.05;6.82;;;;;;;9.13;71.76;98362.69;5031501;28;20246;-62
2022/04/10 03:30:32;;;;;;;8.45;7.28;;;;;;;9.21;71.82;98364.59;5031085;28;20111;-63
2022/04/10 03:33:16;;;;;;;9.00;7.00;;;;;;;9.24;71.43;98368.78;5030852;28;20540;-63
2022/04/10 03:36:00;;;;;;;9.55;6.70;;;;;;;9.20;71.72;98368.28;5039577;28;20048;-63
2022/04/10 03:38:43;;;;;;;8.07;6.45;;;;;;;9.08;71.87;98346.28;5049647;28;20040;-64
2022/04/10 03:41:27;;;;;;;9.82;7.20;;;;;;;9.16;72.35;98361.53;5051356;28;20075;-61
2022/04/10 03:44:11;;;;;;;8.45;6.50;;;;;;;9.14;72.51;98369.72;5050575;28;20051;-64
2022/04/10 03:46:55;;;;;;;8.82;6.50;;;;;;;9.13;72.49;98365.34;5050991;28;20071;-63
2022/04/10 03:49:39;;;;;;;9.70;6.78;;;;;;;8.89;72.21;98324.06;5051376;28;20040;-63
2022/04/10 03:52:23;;;;;;;9.18;6.72;;;;;;;9.17;72.42;98371.25;5051172;28;20044;-62
2022/04/10 03:55:07;;;;;;;9.10;7.15;;;;;;;9.13;72.45;98368.03;5050361;28;20060;-63
2022/04/10 03:57:51;;;;;;;8.80;6.90;;;;;;;9.22;72.42;98376.97;5051160;28;20447;-64
2022/04/10 04:00:35;;;;;;;7.40;6.63;;;;;;;9.25;72.54;98382.00;5051352;28;20475;-63
2022/04/10 04:03:19;;;;;;;9.32;6.55;;;;;;;9.29;72.33;98401.25;5049522;28;20035;-64
2022/04/10 04:06:03;;;;;;;7.82;6.72;;;;;;;9.32;72.14;98398.28;5050447;28;20047;-62
2022/04/10 04:08:47;;;;;;;7.35;6.40;;;;;;;9.36;71.75;98396.97;5050708;28;20035;-65
2022/04/10 04:11:31;;;;;;;7.57;6.78;;;;;;;9.36;71.57;98404.97;5050768;28;20550;-64
2022/04/10 04:14:15;;;;;;;9.68;6.38;;;;;;;9.36;71.36;98404.97;5050683;28;20056;-64
2022/04/10 04:16:59;;;;;;;9.05;6.55;;;;;;;9.34;71.67;98415.81;5050642;28;20545;-64
2022/04/10 04:19:43;;;;;;;9.25;6.85;;;;;;;9.41;71.49;98416.06;5049710;28;20040;-64
2022/04/10 04:22:27;;;;;;;10.20;7.18;;;;;;;9.45;71.22;98413.94;5050706;28;20397;-65
2022/04/10 04:25:11;;;;;;;8.98;7.18;;;;;;;9.45;71.34;98409.41;5050799;28;20032;-64
2022/04/10 04:27:55;;;;;;;10.32;7.28;;;;;;;9.47;71.35;98406.59;5050481;28;20048;-65
2022/04/10 04:30:40;;;;;;;11.00;7.05;;;;;;;9.52;71.46;98411.47;5035662;28;20436;-65
2022/04/10 04:33:23;;;;;;;8.65;7.10;;;;;;;9.59;71.23;98410.72;5050392;28;20408;-64
2022/04/10 04:36:07;;;;;;;10.40;6.97;;;;;;;9.63;71.13;98417.41;5050177;28;20051;-63
2022/04/10 04:38:53;;;;;;;10.95;7.53;;;;;;;9.38;71.32;98380.78;5050678;28;20393;-63
2022/04/10 04:41:37;;;;;;;12.15;7.88;;;;;;;9.57;71.57;98409.19;5050519;28;20136;-62
2022/04/10 04:44:21;;;;;;;11.20;7.60;;;;;;;9.65;71.64;98427.97;5049947;28;20048;-66
2022/04/10 04:47:05;;;;;;;9.82;7.30;;;;;;;9.63;71.29;98422.75;5052410;28;20036;-66
2022/04/10 04:49:49;;;;;;;12.18;8.15;;;;;;;9.47;71.71;98387.91;5054724;28;20047;-65
2022/04/10 04:52:33;;;;;;;15.43;8.07;;;;;;;9.73;71.50;98421.88;5048600;28;20044;-65
2022/04/10 04:55:17;;;;;;;10.55;8.35;;;;;;;9.76;71.28;98433.06;5034670;28;20067;-64
2022/04/10 04:58:01;;;;;;;9.30;7.60;;;;;;;9.75;71.60;98435.91;5033645;28;20111;-66
2022/04/10 05:00:46;;;;;;;10.88;8.20;;;;;;;9.60;71.34;98417.72;5033928;28;20123;-65
2022/04/10 05:03:29;;;;;;;10.52;8.13;;;;;;;9.77;71.75;98444.63;5033245;28;20456;-69
2022/04/10 05:06:13;;;;;;;11.60;8.00;;;;;;;9.76;71.67;98437.59;5033652;28;20036;-71
2022/04/10 05:08:57;;;;;;;10.02;7.93;;;;;;;9.77;71.25;98433.94;5033170;28;20176;-64
2022/04/10 05:11:42;;;;;;;10.23;8.10;;;;;;;9.83;71.42;98452.03;5034222;28;20051;-66
2022/04/10 05:14:26;;;;;;;12.43;8.75;;;;;;;9.61;70.94;98400.69;5034434;28;20091;-67
2022/04/10 05:17:10;;;;;;;13.05;9.05;;;;;;;9.80;71.19;98455.00;5034671;28;20548;-64
2022/04/10 05:19:54;;;;;;;10.57;8.35;;;;;;;9.76;71.31;98454.47;5033843;28;20051;-66
2022/04/10 05:22:38;;;;;;;12.15;8.68;;;;;;;9.77;71.07;98460.66;5033755;28;20039;-67
2022/04/10 05:25:23;;;;;;;15.93;9.07;;;;;;;9.71;71.66;98462.09;5034305;28;20040;-65
2022/04/10 05:28:07;;;;;;;13.27;9.50;;;;;;;9.73;71.40;98460.09;5032862;28;20110;-69
2022/04/10 05:30:51;;;;;;;11.60;8.88;;;;;;;9.58;71.42;98441.09;5033068;28;20126;-65
2022/04/10 05:33:35;;;;;;;13.23;8.90;;;;;;;9.76;71.37;98483.84;5032868;28;20550;-64
2022/04/10 05:36:20;;;;;;;12.35;10.07;;;;;;;9.69;71.56;98463.25;5033831;28;20076;-66
2022/04/10 05:39:04;;;;;;;12.05;8.43;;;;;;;9.65;71.88;98467.22;5033555;28;20469;-66
2022/04/10 05:41:48;;;;;;;12.23;9.43;;;;;;;9.62;71.77;98469.19;5033197;28;20029;-64
2022/04/10 05:44:33;;;;;;;12.23;9.23;;;;;;;9.70;71.83;98487.16;5033925;28;20114;-65
2022/04/10 05:47:19;;;;;;;10.05;8.48;;;;;;;9.75;72.00;98495.53;5033819;28;20095;-65
2022/04/10 05:50:03;;;;;;;11.13;8.32;;;;;;;9.81;72.24;98504.78;5033328;28;20080;-65
2022/04/10 05:52:48;;;;;;;9.95;8.18;;;;;;;9.83;72.12;98497.47;5032279;28;20048;-65
2022/04/10 05:55:32;;;;;;;15.80;9.07;;;;;;;9.91;71.57;98499.38;5033530;28;20119;-64
2022/04/10 05:58:16;;;;;;;10.93;8.25;;;;;;;9.90;71.88;98498.56;5032090;28;20044;-68
2022/04/10 06:01:00;;;;;;;9.25;7.95;;;;;;;9.93;71.80;98480.53;5032895;28;20070;-65
2022/04/10 06:03:44;;;;;;;12.35;8.75;;;;;;;10.03;71.32;98478.59;5033282;28;20048;-64
2022/04/10 06:06:28;;;;;;;11.95;8.63;;;;;;;10.16;71.90;98481.72;5032919;28;20036;-65
2022/04/10 06:09:12;;;;;;;13.50;7.85;;;;;;;10.26;71.26;98504.88;5032100;28;20083;-65
2022/04/10 06:11:56;;;;;;;8.35;7.03;;;;;;;10.29;70.84;98517.94;5032582;28;20099;-65
2022/04/10 06:14:40;;;;;;;10.45;7.85;;;;;;;10.24;70.89;98544.31;5033016;28;20043;-65
2022/04/10 06:17:07;;;;;;;13.68;7.80;;;;;;;10.05;70.87;98520.25;5013940;28;20079;-65
2022/04/10 06:19:33;;;;;;;9.48;7.30;;;;;;;10.11;71.17;98534.81;5031640;28;20037;-66
2022/04/10 06:21:59;;;;;;;8.82;6.97;;;;;;;10.11;71.04;98532.16;5032568;28;20040;-67
2022/04/10 06:24:27;;;;;;;9.18;7.40;;;;;;;10.11;71.29;98532.16;5032218;28;20029;-65
2022/04/10 06:26:53;;;;;;;8.88;7.43;;;;;;;10.13;71.11;98543.56;5032969;28;20025;-67
2022/04/10 06:29:18;;;;;;;11.13;7.47;;;;;;;10.05;70.77;98543.47;5031263;28;20037;-69
2022/04/10 06:31:44;;;;;;;11.98;7.35;;;;;;;10.08;70.61;98558.38;5014099;28;20443;-64
2022/04/10 06:34:09;;;;;;;10.52;7.13;;;;;;;10.04;71.38;98573.88;5014999;28;20120;-64
2022/04/10 06:36:35;;;;;;;8.93;6.78;;;;;;;10.02;71.09;98591.91;5031239;28;20036;-66
2022/04/10 06:39:01;;;;;;;10.88;7.40;;;;;;;10.01;71.41;98587.53;5030261;28;20083;-64
2022/04/10 06:41:26;;;;;;;10.20;7.47;;;;;;;10.02;71.10;98592.75;5030454;28;20381;-65
2022/04/10 06:43:52;;;;;;;10.80;6.93;;;;;;;10.00;71.07;98600.06;5031312;28;20041;-65
2022/04/10 06:46:17;;;;;;;9.00;6.75;;;;;;;9.95;71.27;98602.34;5032334;28;20104;-66
2022/04/10 06:48:43;;;;;;;6.90;5.97;;;;;;;10.02;70.65;98615.97;5031695;28;20032;-65
2022/04/10 06:51:08;;;;;;;7.10;5.07;;;;;;;9.92;70.68;98610.69;5014882;28;20044;-65
2022/04/10 06:53:34;;;;;;;6.63;5.38;;;;;;;9.95;70.31;98625.59;5030587;28;20460;-67
2022/04/10 06:55:59;;;;;;;6.22;4.47;;;;;;;9.71;70.50;98584.22;5031764;28;20525;-67
2022/04/10 06:58:25;;;;;;;5.00;4.43;;;;;;;9.66;70.62;98594.50;5030760;28;20029;-68
2022/04/10 07:00:50;;;;;;;8.43;4.63;;;;;;;9.84;69.65;98637.31;5014021;28;20057;-70
2022/04/10 07:03:16;;;;;;;4.20;3.45;;;;;;;9.75;69.56;98647.91;5013282;28;20113;-64
2022/04/10 07:05:41;;;;;;;3.03;2.70;;;;;;;9.60;68.77;98658.22;5033664;28;20548;-61
2022/04/10 07:08:09;;;;;;;2.63;1.80;;;;;;;9.48;68.60;98673.59;5036957;28;20795;-59
2022/04/10 07:10:36;;;;;;;1.83;1.40;;;;;;;9.24;67.70;98690.13;5046947;28;20029;-63
2022/04/10 07:13:03;;;;;;;1.48;1.25;;;;;;;9.05;67.67;98691.81;5050227;28;20056;-62
2022/04/10 07:15:28;;;;;;;1.58;0.90;;;;;;;8.73;67.52;98700.13;5051143;28;20043;-63
2022/04/10 07:17:56;;;;;;;1.30;1.00;;;;;;;7.97;68.06;98613.56;5051251;28;20434;-61
2022/04/10 07:20:21;;;;;;;1.60;0.68;;;;;;;8.38;67.96;98704.97;5043537;28;20503;-62
2022/04/10 07:25:31;;;;;;;0.77;0.73;;;;;;;8.29;67.39;98716.47;5044796;28;20029;-63
2022/04/10 07:27:56;;;;;;;1.58;0.70;;;;;;;8.29;66.40;98709.28;5047820;28;20484;-64
2022/04/10 07:30:22;;;;;;;1.38;0.70;;;;;;;8.26;66.21;98716.75;5039574;28;20039;-63
2022/04/10 07:32:52;;;;;;;0.63;0.63;;;;;;;8.27;66.33;98734.44;5040328;28;20099;-62
2022/04/10 07:35:19;;;;;;;1.98;0.63;;;;;;;8.22;65.74;98731.34;5039402;28;20112;-64
2022/04/10 07:37:45;;;;;;;0.77;0.63;;;;;;;8.20;65.65;98734.13;5025672;28;20028;-66
2022/04/10 07:40:11;;;;;;;0.60;0.50;;;;;;;8.30;65.11;98729.66;5042128;28;20037;-65
2022/04/10 07:42:43;;;;;;;2.00;0.60;;;;;;;8.19;64.79;98673.78;5037491;28;20036;-60
2022/04/10 07:45:10;;;;;;;0.70;0.60;;;;;;;8.79;63.83;98728.91;5037914;28;20028;-65
2022/04/10 07:47:35;;;;;;;1.00;0.73;;;;;;;9.24;62.39;98724.84;5040504;28;20033;-64
2022/04/10 07:50:01;;;;;;;2.53;0.80;;;;;;;9.58;60.47;98731.53;5039732;28;20044;-63
2022/04/10 07:52:26;;;;;;;0.65;0.50;;;;;;;9.61;60.11;98716.03;5039522;28;20120;-64
2022/04/10 07:54:55;;;;;;;3.35;1.02;;;;;;;9.91;60.16;98759.56;5038716;28;20040;-62
2022/04/10 07:57:21;;;;;;;3.42;1.02;;;;;;;10.02;59.66;98768.38;5033383;28;20037;-65
2022/04/10 07:59:46;;;;;;;2.03;1.15;;;;;;;9.84;59.04;98739.72;5037938;28;20082;-63
2022/04/10 08:02:12;;;;;;;4.30;0.98;;;;;;;9.91;58.87;98750.69;5036789;28;20105;-64
2022/04/10 08:04:38;;;;;;;3.22;1.10;;;;;;;10.25;58.58;98808.13;5035825;28;20033;-64
2022/04/10 08:07:04;;;;;;;5.03;1.10;;;;;;;10.22;58.59;98806.59;5037081;28;20029;-63
2022/04/10 08:09:29;;;;;;;2.45;1.08;;;;;;;10.15;58.24;98760.03;5038972;28;20028;-61
2022/04/10 08:11:55;;;;;;;2.47;1.02;;;;;;;10.50;57.26;98811.16;5034189;28;20029;-62
2022/04/10 08:14:21;;;;;;;1.67;1.10;;;;;;;10.60;56.57;98825.31;5037407;28;20025;-71
2022/04/10 08:16:46;;;;;;;2.50;1.27;;;;;;;10.56;56.97;98834.66;5034329;28;20048;-62
2022/04/10 08:19:12;;;;;;;2.33;1.00;;;;;;;10.61;57.04;98827.03;5033203;28;20029;-64
2022/04/10 08:21:38;;;;;;;1.35;0.80;;;;;;;10.73;56.25;98831.19;5040340;28;20075;-64
2022/04/10 08:24:04;;;;;;;5.97;1.20;;;;;;;10.70;55.00;98803.84;5038013;28;20044;-65
2022/04/10 08:26:29;;;;;;;1.63;0.90;;;;;;;11.08;55.08;98827.84;5038382;28;20508;-62
2022/04/10 08:28:55;;;;;;;1.08;0.75;;;;;;;11.42;53.34;98841.41;5039866;28;20025;-65
2022/04/10 08:31:20;;;;;;;4.85;0.60;;;;;;;11.73;52.59;98853.56;5038007;28;20122;-63
2022/04/10 08:33:46;;;;;;;0.75;0.65;;;;;;;11.89;51.53;98853.72;5038861;28;20033;-67
2022/04/10 08:36:12;;;;;;;0.88;0.75;;;;;;;12.00;51.27;98867.84;5036804;28;20040;-63
2022/04/10 08:38:38;;;;;;;1.63;1.00;;;;;;;12.04;50.90;98872.78;5038861;28;20025;-67
2022/04/10 08:41:07;;;;;;;1.77;1.08;;;;;;;12.03;51.48;98886.34;5038524;28;20088;-68
2022/04/10 08:43:35;;;;;;;2.63;1.33;;;;;;;11.84;52.01;98872.13;5038454;28;20104;-69
2022/04/10 08:46:00;;;;;;;1.45;1.20;;;;;;;11.78;51.85;98867.34;5036675;28;20021;-66
2022/04/10 08:48:26;;;;;;;2.53;1.30;;;;;;;11.67;51.51;98871.13;5039361;28;20473;-68
2022/04/10 08:50:55;;;;;;;1.15;1.00;;;;;;;11.71;52.98;98898.47;5039374;28;20021;-62
2022/04/10 08:53:25;;;;;;;3.38;1.15;;;;;;;11.67;53.11;98897.94;5039772;28;20037;-64
2022/04/10 08:55:50;;;;;;;3.47;1.20;;;;;;;11.57;52.73;98902.53;5039995;28;20033;-63
2022/04/10 08:58:18;;;;;;;3.92;1.10;;;;;;;11.55;52.70;98910.72;5020084;28;20033;-64
2022/04/10 09:00:44;;;;;;;2.50;1.20;;;;;;;11.43;52.10;98895.88;5037753;28;20032;-64
2022/04/10 09:03:10;;;;;;;1.35;1.20;;;;;;;11.42;52.18;98915.63;5039130;28;20383;-63
2022/04/10 09:05:37;;;;;;;2.10;1.27;;;;;;;11.11;51.97;98919.50;5037943;28;20511;-63
2022/04/10 09:08:06;;;;;;;3.17;1.55;;;;;;;11.06;53.83;98936.00;5038317;28;20034;-71
2022/04/10 09:10:54;;;;;;;1.60;1.40;;;;;;;11.24;54.20;98934.38;5024296;28;20037;-74
2022/04/10 09:13:31;;;;;;;2.13;1.60;;;;;;;11.23;53.00;98928.16;5039763;28;20461;-67
2022/04/10 09:16:21;;;;;;;2.60;1.20;;;;;;;11.46;53.39;98938.47;5039927;28;20044;-67
2022/04/10 09:18:58;;;;;;;2.85;1.20;;;;;;;11.42;52.87;98934.41;5036934;28;20033;-65
2022/04/10 09:21:38;;;;;;;1.55;1.20;;;;;;;11.25;52.55;98899.38;5037038;28;20061;-69
2022/04/10 09:24:11;;;;;;;2.08;1.23;;;;;;;11.38;52.16;98947.25;5037963;28;20033;-66
2022/04/10 09:26:55;;;;;;;4.70;1.60;;;;;;;11.32;52.06;98953.22;5036548;28;20026;-65
2022/04/10 09:29:22;;;;;;;1.88;1.40;;;;;;;11.29;52.07;98964.25;5037891;28;20059;-65
2022/04/10 09:31:51;;;;;;;3.60;2.10;;;;;;;11.39;50.93;98969.53;5039071;28;20072;-66
2022/04/10 09:34:22;;;;;;;3.65;1.95;;;;;;;11.47;50.90;98966.94;5041557;28;20045;-69
2022/04/10 09:36:58;;;;;;;3.53;2.10;;;;;;;11.33;50.88;98968.31;5040320;28;20021;-66
2022/04/10 09:39:31;;;;;;;4.05;1.90;;;;;;;11.47;51.27;98974.97;5041161;28;20366;-65
2022/04/10 09:42:08;;;;;;;3.05;1.90;;;;;;;11.47;51.47;98988.38;5039599;28;20477;-65
2022/04/10 09:44:38;;;;;;;2.58;1.70;;;;;;;11.48;50.83;98990.06;5039543;28;20036;-65
2022/04/10 09:47:09;;;;;;;2.88;1.90;;;;;;;11.57;50.30;98981.13;5039321;28;20674;-69
2022/04/10 09:49:41;;;;;;;1.92;1.80;;;;;;;11.95;50.08;98983.69;5037070;28;20044;-67
2022/04/10 09:52:11;;;;;;;2.63;2.00;;;;;;;12.25;48.41;98991.50;5039471;28;20060;-63
2022/04/10 09:54:46;;;;;;;2.75;2.05;;;;;;;12.44;47.69;98987.81;5038361;28;20458;-64
2022/04/10 09:57:19;;;;;;;2.80;2.15;;;;;;;12.63;47.85;98989.44;5039792;28;20537;-65
2022/04/10 09:59:47;;;;;;;3.60;2.40;;;;;;;12.77;47.26;99004.97;5040184;28;20025;-63
2022/04/10 10:02:20;;;;;;;3.13;2.65;;;;;;;12.93;46.71;99006.06;5040915;28;20047;-64
2022/04/10 10:04:47;;;;;;;3.00;2.50;;;;;;;12.94;45.80;99006.91;5040792;28;20030;-64
2022/04/10 10:07:18;;;;;;;3.65;2.42;;;;;;;12.85;45.59;98992.59;5039187;28;20044;-66
2022/04/10 10:09:46;;;;;;;2.67;2.47;;;;;;;12.52;45.53;98997.75;5040843;28;20581;-65
2022/04/10 10:12:12;;;;;;;4.40;2.45;;;;;;;12.47;45.83;99009.78;5039303;28;20972;-62
2022/04/10 10:14:39;;;;;;;3.25;2.58;;;;;;;12.52;45.66;99005.78;5038485;28;20071;-63
2022/04/10 10:17:06;;;;;;;3.13;2.88;;;;;;;12.57;45.06;99008.88;5041028;28;20231;-63
2022/04/10 10:19:35;;;;;;;4.55;3.20;;;;;;;12.62;45.14;99003.88;5037756;28;20094;-64
2022/04/10 10:22:06;;;;;;;3.50;3.17;;;;;;;12.63;45.14;99010.94;5040964;28;20027;-67
2022/04/10 10:24:54;;;;;;;4.18;2.80;;;;;;;12.53;45.99;99015.53;5041400;28;20419;-71
2022/04/10 10:27:34;;;;;;;3.50;3.20;;;;;;;12.58;45.85;99019.44;5041336;28;20033;-71
2022/04/10 10:30:29;;;;;;;4.82;3.20;;;;;;;12.55;45.04;99018.94;5024314;28;20032;-71
2022/04/10 10:32:57;;;;;;;4.70;3.20;;;;;;;12.51;45.06;99013.03;5039444;28;20052;-70
2022/04/10 10:35:33;;;;;;;4.72;3.50;;;;;;;12.56;45.77;99004.50;5037966;28;20044;-70
2022/04/10 10:38:00;;;;;;;;;;;;;;;13.05;46.22;99026.31;5022460;28;20021;-71
2022/04/10 10:40:26;;;;;;;4.22;3.45;;;;;;;12.73;44.23;99024.25;5039315;28;19916;-72
2022/04/10 10:42:51;;;;;;;3.92;3.33;;;;;;;12.53;44.32;99027.13;5026254;28;20029;-71
2022/04/10 10:45:40;;;;;;;5.00;3.67;;;;;;;12.62;45.70;99026.19;5037608;28;20132;-68
2022/04/10 10:48:38;;;;;;;5.40;3.92;;;;;;;12.77;45.75;99037.19;5040350;28;20469;-70
2022/04/10 10:51:10;;;;;;;5.07;4.03;;;;;;;12.86;44.87;99042.63;5029213;28;20061;-72
2022/04/10 10:53:57;;;;;;;4.53;4.00;;;;;;;13.02;44.74;99048.13;5039827;28;20025;-72
2022/04/10 10:56:32;;;;;;;7.63;4.22;;;;;;;13.02;44.49;99047.25;5040251;28;20044;-69
2022/04/10 10:59:22;;;;;;;8.32;4.10;;;;;;;13.10;44.66;99049.16;5039909;28;20392;-70
2022/04/10 11:02:00;;;;;;;6.05;3.95;;;;;;;13.01;44.56;99057.16;5040276;28;20462;-69
2022/04/10 11:04:28;;;;;;;7.00;4.10;;;;;;;12.91;44.14;99056.44;5039597;28;20688;-70
2022/04/10 11:06:54;;;;;;;5.45;3.60;;;;;;;12.95;43.15;99057.78;5038891;28;20067;-71
2022/04/10 11:09:31;;;;;;;5.90;4.18;;;;;;;13.05;44.25;99074.66;5024029;28;20500;-69
2022/04/10 11:12:00;;;;;;;6.88;3.60;;;;;;;12.87;43.78;99069.31;5023512;28;20170;-66
2022/04/10 11:14:40;;;;;;;4.88;3.63;;;;;;;12.83;44.54;99067.13;5039915;28;20033;-72
2022/04/10 11:17:15;;;;;;;4.72;4.03;;;;;;;12.68;44.50;99069.53;5040697;28;20048;-70
2022/04/10 11:19:45;;;;;;;6.93;3.85;;;;;;;12.51;44.13;99076.59;5040782;28;20404;-70
2022/04/10 11:22:14;;;;;;;5.10;3.60;;;;;;;12.36;44.84;99066.44;5037935;28;20048;-69
2022/04/10 11:24:40;;;;;;;6.30;3.80;;;;;;;12.32;44.59;99082.00;5026089;28;20033;-70
2022/04/10 11:27:11;;;;;;;6.25;4.68;;;;;;;12.26;45.35;99068.34;5028918;28;20029;-70
2022/04/10 11:29:47;;;;;;;3.85;3.55;;;;;;;12.05;45.10;99075.69;5029266;28;20029;-71
2022/04/10 11:32:17;;;;;;;7.55;3.53;;;;;;;11.76;44.58;99079.38;5029053;28;20393;-70
2022/04/10 11:34:43;;;;;;;7.50;4.40;;;;;;;11.49;45.13;99070.34;5029227;28;20041;-71
2022/04/10 11:37:18;;;;;;;6.05;4.07;;;;;;;11.46;45.69;99061.75;5028049;28;20389;-70
2022/04/10 11:39:44;;;;;;;5.35;4.00;;;;;;;11.45;45.58;99082.38;5029956;28;20029;-69
2022/04/10 11:42:11;;;;;;;9.50;4.50;;;;;;;11.32;45.28;99071.97;5030886;28;20045;-71
2022/04/10 11:44:38;;;;;;;5.60;4.03;;;;;;;11.27;45.62;99066.19;5012569;28;20409;-70
2022/04/10 11:47:11;;;;;;;8.73;3.80;;;;;;;11.31;45.48;99072.94;5028761;28;20134;-69
2022/04/10 11:49:37;;;;;;;8.32;4.22;;;;;;;11.12;45.75;99047.09;5029029;28;20038;-71
2022/04/10 11:52:03;;;;;;;15.90;4.38;;;;;;;11.24;46.09;99089.78;5028929;28;20120;-70
2022/04/10 11:54:33;;;;;;;9.13;4.40;;;;;;;11.18;45.49;99085.84;5030536;28;20497;-70
2022/04/10 11:57:00;;;;;;;6.60;4.57;;;;;;;11.18;45.52;99085.84;5029991;28;20040;-70
2022/04/10 11:59:33;;;;;;;6.63;4.05;;;;;;;11.36;45.86;99093.13;5028705;28;20457;-68
2022/04/10 12:01:59;;;;;;;7.05;4.03;;;;;;;11.37;45.36;99086.78;5029945;28;20124;-67
2022/04/10 12:04:24;;;;;;;7.47;4.00;;;;;;;11.53;45.28;99089.66;5030388;28;20033;-68